This is the latest recevied weather packets stored in our database for station/object E22FEY-1. If no packets are shown the sender has not sent any weather packets the latest 10 day(s).
| Time | Temp. | Humidity | Pressure | Rain* | Wind** | Luminosity | Snow |
|---|---|---|---|---|---|---|---|
| 1777864698 | 38.33° C | 44% | 1010 hPa | - | - | 0 W/m² | - |
| 1777863774 | 40° C | 41% | 1010 hPa | - | - | 0 W/m² | - |
| 1777862850 | 40° C | 40% | 1010 hPa | - | - | 0 W/m² | - |
| 1777861925 | 40° C | 40% | 1010 hPa | - | - | 0 W/m² | - |
| 1777861001 | 40.56° C | 40% | 1010 hPa | - | - | 0 W/m² | - |
| 1777860077 | 40° C | 41% | 1010 hPa | - | - | 0 W/m² | - |
| 1777859153 | 40.56° C | 42% | 1010 hPa | - | - | 0 W/m² | - |
| 1777858229 | 41.11° C | 40% | 1010 hPa | - | - | 0 W/m² | - |
| 1777857305 | 41.11° C | 40% | 1010 hPa | - | - | 0 W/m² | - |
| 1777856381 | 41.67° C | 40% | 1010 hPa | - | - | 0 W/m² | - |
| 1777855456 | 42.78° C | 38% | 1010 hPa | - | - | 0 W/m² | - |
| 1777854532 | 42.22° C | 40% | 1010 hPa | - | - | 0 W/m² | - |
| 1777853608 | 39.44° C | 45% | 1009 hPa | - | - | 0 W/m² | - |
| 1777852684 | 36.11° C | 53% | 1009 hPa | - | - | 0 W/m² | - |
| 1777851759 | 33.33° C | 62% | 1009 hPa | - | - | 0 W/m² | - |
| 1777850835 | 32.22° C | 63% | 1009 hPa | - | - | 0 W/m² | - |
| 1777849911 | 32.22° C | 64% | 1009 hPa | - | - | 0 W/m² | - |
| 1777848986 | 32.22° C | 65% | 1009 hPa | - | - | 0 W/m² | - |
| 1777848062 | 32.78° C | 64% | 1009 hPa | - | - | 0 W/m² | - |
| 1777847137 | 32.22° C | 65% | 1008 hPa | - | - | 0 W/m² | - |
| 1777846213 | 32.22° C | 66% | 1008 hPa | - | - | 0 W/m² | - |
| 1777845289 | 32.22° C | 66% | 1008 hPa | - | - | 0 W/m² | - |
| 1777844364 | 32.22° C | 64% | 1008 hPa | - | - | 0 W/m² | - |
| 1777843440 | 32.22° C | 63% | 1008 hPa | - | - | 0 W/m² | - |
| 1777842515 | 32.22° C | 64% | 1007 hPa | - | - | 0 W/m² | - |
* Rain since midnight (hover to see other rain measurements)
** Current wind speed in m/s (hover to see current wind gust speed)